sensor_id;sensor_type;location;lat;lon;timestamp;temperature;humidity
70170;DHT22;57543;45.442;9.212;2023-04-25T00:00:08;17.73;58.07
70170;DHT22;57543;45.442;9.212;2023-04-25T00:03:15;17.81;57.66
70170;DHT22;57543;45.442;9.212;2023-04-25T00:06:21;17.70;57.64
70170;DHT22;57543;45.442;9.212;2023-04-25T00:09:25;17.59;57.73
70170;DHT22;57543;45.442;9.212;2023-04-25T00:12:28;17.47;57.97
70170;DHT22;57543;45.442;9.212;2023-04-25T00:15:31;17.28;58.27
70170;DHT22;57543;45.442;9.212;2023-04-25T00:18:35;17.17;58.57
70170;DHT22;57543;45.442;9.212;2023-04-25T00:21:39;17.27;58.19
70170;DHT22;57543;45.442;9.212;2023-04-25T00:24:46;17.10;58.32
70170;DHT22;57543;45.442;9.212;2023-04-25T00:27:49;16.83;59.09
70170;DHT22;57543;45.442;9.212;2023-04-25T00:30:52;16.62;59.47
70170;DHT22;57543;45.442;9.212;2023-04-25T00:33:57;16.62;59.51
70170;DHT22;57543;45.442;9.212;2023-04-25T00:37:00;16.67;59.42
70170;DHT22;57543;45.442;9.212;2023-04-25T00:40:07;16.45;59.68
70170;DHT22;57543;45.442;9.212;2023-04-25T00:43:11;16.38;60.22
70170;DHT22;57543;45.442;9.212;2023-04-25T00:46:15;16.73;59.34
70170;DHT22;57543;45.442;9.212;2023-04-25T00:49:18;16.73;59.04
70170;DHT22;57543;45.442;9.212;2023-04-25T00:52:22;16.94;58.57
70170;DHT22;57543;45.442;9.212;2023-04-25T00:55:26;16.85;58.73
70170;DHT22;57543;45.442;9.212;2023-04-25T00:58:29;17.12;58.21
70170;DHT22;57543;45.442;9.212;2023-04-25T01:01:35;17.03;58.29
70170;DHT22;57543;45.442;9.212;2023-04-25T01:04:39;17.04;57.93
70170;DHT22;57543;45.442;9.212;2023-04-25T01:07:43;16.72;58.98
70170;DHT22;57543;45.442;9.212;2023-04-25T01:10:46;16.70;58.68
70170;DHT22;57543;45.442;9.212;2023-04-25T01:13:50;16.62;58.80
70170;DHT22;57543;45.442;9.212;2023-04-25T01:16:54;16.52;59.09
70170;DHT22;57543;45.442;9.212;2023-04-25T01:19:58;16.62;58.97
70170;DHT22;57543;45.442;9.212;2023-04-25T01:23:02;16.59;58.85
70170;DHT22;57543;45.442;9.212;2023-04-25T01:26:09;16.66;58.37
70170;DHT22;57543;45.442;9.212;2023-04-25T01:29:13;16.24;59.64
70170;DHT22;57543;45.442;9.212;2023-04-25T01:32:17;16.31;59.54
70170;DHT22;57543;45.442;9.212;2023-04-25T01:35:21;16.44;59.32
70170;DHT22;57543;45.442;9.212;2023-04-25T01:38:31;16.56;58.50
70170;DHT22;57543;45.442;9.212;2023-04-25T01:41:34;16.22;59.39
70170;DHT22;57543;45.442;9.212;2023-04-25T01:44:38;16.25;59.44
70170;DHT22;57543;45.442;9.212;2023-04-25T01:47:43;16.41;58.97
70170;DHT22;57543;45.442;9.212;2023-04-25T01:50:47;16.39;58.82
70170;DHT22;57543;45.442;9.212;2023-04-25T01:53:51;16.66;58.48
70170;DHT22;57543;45.442;9.212;2023-04-25T01:56:56;16.73;58.15
70170;DHT22;57543;45.442;9.212;2023-04-25T02:00:03;16.69;58.45
70170;DHT22;57543;45.442;9.212;2023-04-25T02:03:16;16.72;58.12
70170;DHT22;57543;45.442;9.212;2023-04-25T02:06:20;16.67;58.31
70170;DHT22;57543;45.442;9.212;2023-04-25T02:09:25;16.52;58.67
70170;DHT22;57543;45.442;9.212;2023-04-25T02:12:32;16.57;58.59
70170;DHT22;57543;45.442;9.212;2023-04-25T02:15:39;16.28;59.52
70170;DHT22;57543;45.442;9.212;2023-04-25T02:18:51;16.33;59.30
70170;DHT22;57543;45.442;9.212;2023-04-25T02:21:56;16.32;59.61
70170;DHT22;57543;45.442;9.212;2023-04-25T02:25:01;15.91;60.69
70170;DHT22;57543;45.442;9.212;2023-04-25T02:28:04;15.89;60.87
70170;DHT22;57543;45.442;9.212;2023-04-25T02:31:08;16.10;60.44
70170;DHT22;57543;45.442;9.212;2023-04-25T02:34:12;15.93;61.10
70170;DHT22;57543;45.442;9.212;2023-04-25T02:37:16;15.65;61.90
70170;DHT22;57543;45.442;9.212;2023-04-25T02:40:22;15.50;62.45
70170;DHT22;57543;45.442;9.212;2023-04-25T02:43:25;15.79;61.74
70170;DHT22;57543;45.442;9.212;2023-04-25T02:46:29;15.52;62.41
70170;DHT22;57543;45.442;9.212;2023-04-25T02:49:33;15.42;63.00
70170;DHT22;57543;45.442;9.212;2023-04-25T02:52:36;15.34;63.28
70170;DHT22;57543;45.442;9.212;2023-04-25T02:55:49;15.36;63.28
70170;DHT22;57543;45.442;9.212;2023-04-25T02:58:53;15.69;62.42
70170;DHT22;57543;45.442;9.212;2023-04-25T03:01:56;15.93;61.77
70170;DHT22;57543;45.442;9.212;2023-04-25T03:05:00;15.76;62.29
70170;DHT22;57543;45.442;9.212;2023-04-25T03:08:05;15.62;62.79
70170;DHT22;57543;45.442;9.212;2023-04-25T03:11:10;15.22;63.89
70170;DHT22;57543;45.442;9.212;2023-04-25T03:14:16;15.15;64.01
70170;DHT22;57543;45.442;9.212;2023-04-25T03:17:21;15.22;63.93
70170;DHT22;57543;45.442;9.212;2023-04-25T03:20:26;15.30;63.78
70170;DHT22;57543;45.442;9.212;2023-04-25T03:23:29;15.43;63.73
70170;DHT22;57543;45.442;9.212;2023-04-25T03:26:33;15.79;62.73
70170;DHT22;57543;45.442;9.212;2023-04-25T03:29:37;16.01;62.24
70170;DHT22;57543;45.442;9.212;2023-04-25T03:32:42;16.08;62.10
70170;DHT22;57543;45.442;9.212;2023-04-25T03:35:46;16.22;61.75
70170;DHT22;57543;45.442;9.212;2023-04-25T03:38:50;16.10;61.81
70170;DHT22;57543;45.442;9.212;2023-04-25T03:41:55;16.32;61.43
70170;DHT22;57543;45.442;9.212;2023-04-25T03:44:58;16.24;61.41
70170;DHT22;57543;45.442;9.212;2023-04-25T03:48:02;16.22;61.15
70170;DHT22;57543;45.442;9.212;2023-04-25T03:51:10;16.15;61.52
70170;DHT22;57543;45.442;9.212;2023-04-25T03:54:17;16.12;61.64
70170;DHT22;57543;45.442;9.212;2023-04-25T03:57:31;16.18;61.73
70170;DHT22;57543;45.442;9.212;2023-04-25T04:00:35;16.08;61.99
70170;DHT22;57543;45.442;9.212;2023-04-25T04:03:40;15.77;62.29
70170;DHT22;57543;45.442;9.212;2023-04-25T04:06:44;15.41;63.47
70170;DHT22;57543;45.442;9.212;2023-04-25T04:09:53;15.11;64.39
70170;DHT22;57543;45.442;9.212;2023-04-25T04:13:02;15.03;64.84
70170;DHT22;57543;45.442;9.212;2023-04-25T04:16:06;14.96;65.03
70170;DHT22;57543;45.442;9.212;2023-04-25T04:19:10;15.07;64.63
70170;DHT22;57543;45.442;9.212;2023-04-25T04:22:16;14.72;65.17
70170;DHT22;57543;45.442;9.212;2023-04-25T04:25:20;14.96;64.82
70170;DHT22;57543;45.442;9.212;2023-04-25T04:28:40;15.04;64.71
70170;DHT22;57543;45.442;9.212;2023-04-25T04:32:03;15.04;64.79
70170;DHT22;57543;45.442;9.212;2023-04-25T04:35:08;15.08;64.45
70170;DHT22;57543;45.442;9.212;2023-04-25T04:38:13;15.14;64.47
70170;DHT22;57543;45.442;9.212;2023-04-25T04:41:18;15.20;64.44
70170;DHT22;57543;45.442;9.212;2023-04-25T04:44:47;15.42;63.87
70170;DHT22;57543;45.442;9.212;2023-04-25T04:48:02;15.42;63.73
70170;DHT22;57543;45.442;9.212;2023-04-25T04:51:25;15.59;63.27
70170;DHT22;57543;45.442;9.212;2023-04-25T04:54:31;15.59;63.29
70170;DHT22;57543;45.442;9.212;2023-04-25T04:57:54;15.69;63.11
70170;DHT22;57543;45.442;9.212;2023-04-25T05:01:07;15.60;63.60
70170;DHT22;57543;45.442;9.212;2023-04-25T05:04:41;15.32;64.11
70170;DHT22;57543;45.442;9.212;2023-04-25T05:07:56;15.36;63.99
70170;DHT22;57543;45.442;9.212;2023-04-25T05:11:20;15.32;63.67
70170;DHT22;57543;45.442;9.212;2023-04-25T05:14:47;15.32;63.52
70170;DHT22;57543;45.442;9.212;2023-04-25T05:18:09;15.01;64.39
70170;DHT22;57543;45.442;9.212;2023-04-25T05:21:22;15.04;64.37
70170;DHT22;57543;45.442;9.212;2023-04-25T05:24:43;15.20;63.96
70170;DHT22;57543;45.442;9.212;2023-04-25T05:28:06;15.00;64.20
70170;DHT22;57543;45.442;9.212;2023-04-25T05:31:22;15.04;64.56
70170;DHT22;57543;45.442;9.212;2023-04-25T05:34:35;15.04;64.37
70170;DHT22;57543;45.442;9.212;2023-04-25T05:37:42;15.18;63.77
70170;DHT22;57543;45.442;9.212;2023-04-25T05:40:47;15.28;63.56
70170;DHT22;57543;45.442;9.212;2023-04-25T05:44:15;15.03;64.27
70170;DHT22;57543;45.442;9.212;2023-04-25T05:47:26;14.97;64.34
70170;DHT22;57543;45.442;9.212;2023-04-25T05:50:54;15.35;63.74
70170;DHT22;57543;45.442;9.212;2023-04-25T05:54:16;15.58;62.99
70170;DHT22;57543;45.442;9.212;2023-04-25T05:57:25;15.62;62.42
70170;DHT22;57543;45.442;9.212;2023-04-25T06:00:30;15.84;62.22
70170;DHT22;57543;45.442;9.212;2023-04-25T06:03:34;15.79;62.50
70170;DHT22;57543;45.442;9.212;2023-04-25T06:06:38;15.67;63.36
70170;DHT22;57543;45.442;9.212;2023-04-25T06:09:43;15.83;62.88
70170;DHT22;57543;45.442;9.212;2023-04-25T06:12:46;15.79;62.31
70170;DHT22;57543;45.442;9.212;2023-04-25T06:15:52;15.69;62.94
70170;DHT22;57543;45.442;9.212;2023-04-25T06:18:55;15.80;62.37
70170;DHT22;57543;45.442;9.212;2023-04-25T06:21:59;16.04;61.63
70170;DHT22;57543;45.442;9.212;2023-04-25T06:25:03;15.90;61.85
70170;DHT22;57543;45.442;9.212;2023-04-25T06:28:07;15.82;62.18
70170;DHT22;57543;45.442;9.212;2023-04-25T06:31:12;16.03;62.05
70170;DHT22;57543;45.442;9.212;2023-04-25T06:34:16;15.97;62.89
70170;DHT22;57543;45.442;9.212;2023-04-25T06:37:19;16.20;61.88
70170;DHT22;57543;45.442;9.212;2023-04-25T06:40:23;15.87;62.39
70170;DHT22;57543;45.442;9.212;2023-04-25T06:43:27;16.12;62.63
70170;DHT22;57543;45.442;9.212;2023-04-25T06:46:33;16.18;62.95
70170;DHT22;57543;45.442;9.212;2023-04-25T06:49:38;16.46;62.22
70170;DHT22;57543;45.442;9.212;2023-04-25T06:52:43;16.38;61.30
70170;DHT22;57543;45.442;9.212;2023-04-25T06:55:47;16.51;61.08
70170;DHT22;57543;45.442;9.212;2023-04-25T06:58:59;16.18;61.73
70170;DHT22;57543;45.442;9.212;2023-04-25T07:02:09;16.57;61.18
70170;DHT22;57543;45.442;9.212;2023-04-25T07:05:13;16.79;60.82
70170;DHT22;57543;45.442;9.212;2023-04-25T07:08:17;16.95;60.17
70170;DHT22;57543;45.442;9.212;2023-04-25T07:11:21;16.52;61.09
70170;DHT22;57543;45.442;9.212;2023-04-25T07:14:25;16.72;60.80
70170;DHT22;57543;45.442;9.212;2023-04-25T07:17:29;16.81;61.12
70170;DHT22;57543;45.442;9.212;2023-04-25T07:20:33;16.81;61.11
70170;DHT22;57543;45.442;9.212;2023-04-25T07:23:38;16.95;60.86
70170;DHT22;57543;45.442;9.212;2023-04-25T07:26:47;17.19;61.03
70170;DHT22;57543;45.442;9.212;2023-04-25T07:30:05;17.01;61.66
70170;DHT22;57543;45.442;9.212;2023-04-25T07:33:09;17.49;61.30
70170;DHT22;57543;45.442;9.212;2023-04-25T07:36:13;17.32;61.09
70170;DHT22;57543;45.442;9.212;2023-04-25T07:39:18;17.24;60.90
70170;DHT22;57543;45.442;9.212;2023-04-25T07:42:22;17.22;61.04
70170;DHT22;57543;45.442;9.212;2023-04-25T07:45:26;17.21;61.00
70170;DHT22;57543;45.442;9.212;2023-04-25T07:48:30;17.29;60.84
70170;DHT22;57543;45.442;9.212;2023-04-25T07:51:34;17.38;61.14
70170;DHT22;57543;45.442;9.212;2023-04-25T07:54:43;16.59;62.62
70170;DHT22;57543;45.442;9.212;2023-04-25T07:57:53;16.97;63.03
70170;DHT22;57543;45.442;9.212;2023-04-25T08:00:57;16.90;63.37
70170;DHT22;57543;45.442;9.212;2023-04-25T08:04:21;17.22;62.15
70170;DHT22;57543;45.442;9.212;2023-04-25T08:07:30;17.25;61.50
70170;DHT22;57543;45.442;9.212;2023-04-25T08:10:38;17.24;61.40
70170;DHT22;57543;45.442;9.212;2023-04-25T08:13:45;17.55;60.94
70170;DHT22;57543;45.442;9.212;2023-04-25T08:16:49;17.93;60.01
70170;DHT22;57543;45.442;9.212;2023-04-25T08:19:53;17.77;59.18
70170;DHT22;57543;45.442;9.212;2023-04-25T08:23:02;18.01;58.01
70170;DHT22;57543;45.442;9.212;2023-04-25T08:26:24;17.67;59.46
70170;DHT22;57543;45.442;9.212;2023-04-25T08:29:29;17.87;59.52
70170;DHT22;57543;45.442;9.212;2023-04-25T08:32:33;18.07;59.18
70170;DHT22;57543;45.442;9.212;2023-04-25T08:35:53;18.12;59.43
70170;DHT22;57543;45.442;9.212;2023-04-25T08:38:59;18.48;58.08
70170;DHT22;57543;45.442;9.212;2023-04-25T08:42:06;18.48;55.28
70170;DHT22;57543;45.442;9.212;2023-04-25T08:45:13;18.52;55.06
70170;DHT22;57543;45.442;9.212;2023-04-25T08:48:19;18.81;54.09
70170;DHT22;57543;45.442;9.212;2023-04-25T08:51:23;19.07;54.44
70170;DHT22;57543;45.442;9.212;2023-04-25T08:54:32;18.84;53.73
70170;DHT22;57543;45.442;9.212;2023-04-25T08:57:38;18.24;55.58
70170;DHT22;57543;45.442;9.212;2023-04-25T09:00:50;18.90;54.22
70170;DHT22;57543;45.442;9.212;2023-04-25T09:03:54;18.88;53.19
70170;DHT22;57543;45.442;9.212;2023-04-25T09:06:58;19.07;52.90
70170;DHT22;57543;45.442;9.212;2023-04-25T09:10:05;18.94;52.75
70170;DHT22;57543;45.442;9.212;2023-04-25T09:13:14;18.94;53.51
70170;DHT22;57543;45.442;9.212;2023-04-25T09:20:15;18.59;53.66
70170;DHT22;57543;45.442;9.212;2023-04-25T09:23:20;18.70;54.45
70170;DHT22;57543;45.442;9.212;2023-04-25T09:26:25;18.51;53.78
70170;DHT22;57543;45.442;9.212;2023-04-25T09:29:34;18.80;53.57
70170;DHT22;57543;45.442;9.212;2023-04-25T09:32:37;19.01;52.60
70170;DHT22;57543;45.442;9.212;2023-04-25T09:35:43;19.08;52.94
70170;DHT22;57543;45.442;9.212;2023-04-25T09:38:54;19.05;52.87
70170;DHT22;57543;45.442;9.212;2023-04-25T09:42:03;18.96;52.49
70170;DHT22;57543;45.442;9.212;2023-04-25T09:45:12;18.69;53.49
70170;DHT22;57543;45.442;9.212;2023-04-25T09:48:19;18.32;54.43
70170;DHT22;57543;45.442;9.212;2023-04-25T09:51:25;18.48;53.87
70170;DHT22;57543;45.442;9.212;2023-04-25T09:54:30;18.56;54.22
70170;DHT22;57543;45.442;9.212;2023-04-25T09:57:47;19.32;53.55
70170;DHT22;57543;45.442;9.212;2023-04-25T10:00:54;19.28;53.16
70170;DHT22;57543;45.442;9.212;2023-04-25T10:04:24;19.25;52.49
70170;DHT22;57543;45.442;9.212;2023-04-25T10:07:38;19.51;51.98
70170;DHT22;57543;45.442;9.212;2023-04-25T10:10:46;19.46;51.83
70170;DHT22;57543;45.442;9.212;2023-04-25T10:13:52;19.31;52.12
70170;DHT22;57543;45.442;9.212;2023-04-25T10:16:57;19.80;51.90
70170;DHT22;57543;45.442;9.212;2023-04-25T10:20:02;20.05;50.82
70170;DHT22;57543;45.442;9.212;2023-04-25T10:23:14;20.35;50.18
70170;DHT22;57543;45.442;9.212;2023-04-25T10:26:19;20.49;49.48
70170;DHT22;57543;45.442;9.212;2023-04-25T10:29:26;20.76;49.15
70170;DHT22;57543;45.442;9.212;2023-04-25T10:32:31;21.14;48.37
70170;DHT22;57543;45.442;9.212;2023-04-25T10:35:36;20.95;48.51
70170;DHT22;57543;45.442;9.212;2023-04-25T10:38:43;21.14;47.66
70170;DHT22;57543;45.442;9.212;2023-04-25T10:41:58;20.87;48.50
70170;DHT22;57543;45.442;9.212;2023-04-25T10:45:04;20.97;48.26
70170;DHT22;57543;45.442;9.212;2023-04-25T10:48:28;20.98;47.77
70170;DHT22;57543;45.442;9.212;2023-04-25T10:51:34;21.38;47.54
70170;DHT22;57543;45.442;9.212;2023-04-25T10:57:49;21.32;46.11
70170;DHT22;57543;45.442;9.212;2023-04-25T11:00:55;21.53;47.23
70170;DHT22;57543;45.442;9.212;2023-04-25T11:03:58;21.42;46.13
70170;DHT22;57543;45.442;9.212;2023-04-25T11:07:04;21.60;46.17
70170;DHT22;57543;45.442;9.212;2023-04-25T11:10:10;21.60;46.67
70170;DHT22;57543;45.442;9.212;2023-04-25T11:13:14;21.91;44.88
70170;DHT22;57543;45.442;9.212;2023-04-25T11:16:18;22.07;45.13
70170;DHT22;57543;45.442;9.212;2023-04-25T11:19:22;22.19;43.92
70170;DHT22;57543;45.442;9.212;2023-04-25T11:22:27;22.44;44.84
70170;DHT22;57543;45.442;9.212;2023-04-25T11:25:31;22.36;43.50
70170;DHT22;57543;45.442;9.212;2023-04-25T11:28:34;22.34;42.56
70170;DHT22;57543;45.442;9.212;2023-04-25T11:31:39;22.25;43.43
70170;DHT22;57543;45.442;9.212;2023-04-25T11:34:46;22.53;43.61
70170;DHT22;57543;45.442;9.212;2023-04-25T11:37:50;22.79;43.84
70170;DHT22;57543;45.442;9.212;2023-04-25T11:40:56;23.00;42.88
70170;DHT22;57543;45.442;9.212;2023-04-25T11:44:01;23.03;42.82
70170;DHT22;57543;45.442;9.212;2023-04-25T11:47:06;23.18;42.36
70170;DHT22;57543;45.442;9.212;2023-04-25T11:50:10;22.76;42.11
70170;DHT22;57543;45.442;9.212;2023-04-25T11:53:14;22.77;42.54
70170;DHT22;57543;45.442;9.212;2023-04-25T11:56:20;22.87;42.65
70170;DHT22;57543;45.442;9.212;2023-04-25T11:59:25;22.66;42.17
70170;DHT22;57543;45.442;9.212;2023-04-25T12:02:31;23.00;42.41
70170;DHT22;57543;45.442;9.212;2023-04-25T12:05:35;23.21;42.40
70170;DHT22;57543;45.442;9.212;2023-04-25T12:08:59;23.26;41.88
70170;DHT22;57543;45.442;9.212;2023-04-25T12:12:03;22.96;40.85
70170;DHT22;57543;45.442;9.212;2023-04-25T12:18:25;23.52;40.08
70170;DHT22;57543;45.442;9.212;2023-04-25T12:21:34;23.45;40.04
70170;DHT22;57543;45.442;9.212;2023-04-25T12:24:37;23.41;40.06
70170;DHT22;57543;45.442;9.212;2023-04-25T12:27:41;23.38;40.10
70170;DHT22;57543;45.442;9.212;2023-04-25T12:31:02;22.80;39.99
70170;DHT22;57543;45.442;9.212;2023-04-25T12:34:06;22.76;40.11
70170;DHT22;57543;45.442;9.212;2023-04-25T12:37:10;22.49;40.74
70170;DHT22;57543;45.442;9.212;2023-04-25T12:40:15;22.28;40.62
70170;DHT22;57543;45.442;9.212;2023-04-25T12:43:19;21.77;42.95
70170;DHT22;57543;45.442;9.212;2023-04-25T12:46:22;21.62;42.75
70170;DHT22;57543;45.442;9.212;2023-04-25T12:49:26;21.15;43.16
70170;DHT22;57543;45.442;9.212;2023-04-25T12:52:30;21.14;43.59
70170;DHT22;57543;45.442;9.212;2023-04-25T12:55:34;21.34;43.28
70170;DHT22;57543;45.442;9.212;2023-04-25T12:58:37;21.37;42.71
70170;DHT22;57543;45.442;9.212;2023-04-25T13:01:41;21.38;42.91
70170;DHT22;57543;45.442;9.212;2023-04-25T13:04:45;21.38;43.22
70170;DHT22;57543;45.442;9.212;2023-04-25T13:07:48;21.34;42.93
70170;DHT22;57543;45.442;9.212;2023-04-25T13:10:52;21.35;43.37
70170;DHT22;57543;45.442;9.212;2023-04-25T13:13:56;20.95;45.53
70170;DHT22;57543;45.442;9.212;2023-04-25T13:16:59;20.90;46.28
70170;DHT22;57543;45.442;9.212;2023-04-25T13:20:05;20.57;46.95
70170;DHT22;57543;45.442;9.212;2023-04-25T13:23:12;20.52;47.72
70170;DHT22;57543;45.442;9.212;2023-04-25T13:26:15;20.15;47.23
70170;DHT22;57543;45.442;9.212;2023-04-25T13:29:19;19.91;43.95
70170;DHT22;57543;45.442;9.212;2023-04-25T13:32:23;19.76;36.41
70170;DHT22;57543;45.442;9.212;2023-04-25T13:35:29;19.28;35.76
70170;DHT22;57543;45.442;9.212;2023-04-25T13:38:33;19.38;36.62
70170;DHT22;57543;45.442;9.212;2023-04-25T13:41:40;19.17;38.40
70170;DHT22;57543;45.442;9.212;2023-04-25T13:44:43;19.14;40.06
70170;DHT22;57543;45.442;9.212;2023-04-25T13:47:47;19.46;40.08
70170;DHT22;57543;45.442;9.212;2023-04-25T13:50:53;19.65;40.96
70170;DHT22;57543;45.442;9.212;2023-04-25T13:53:57;19.81;41.06
70170;DHT22;57543;45.442;9.212;2023-04-25T13:57:01;19.81;39.73
70170;DHT22;57543;45.442;9.212;2023-04-25T14:00:05;19.96;43.48
70170;DHT22;57543;45.442;9.212;2023-04-25T14:03:13;20.29;43.55
70170;DHT22;57543;45.442;9.212;2023-04-25T14:06:16;20.70;43.03
70170;DHT22;57543;45.442;9.212;2023-04-25T14:09:25;20.88;40.55
70170;DHT22;57543;45.442;9.212;2023-04-25T14:12:30;20.98;36.79
70170;DHT22;57543;45.442;9.212;2023-04-25T14:15:34;21.22;35.47
70170;DHT22;57543;45.442;9.212;2023-04-25T14:18:38;21.59;35.70
70170;DHT22;57543;45.442;9.212;2023-04-25T14:21:42;21.70;35.51
70170;DHT22;57543;45.442;9.212;2023-04-25T14:24:45;21.93;37.62
70170;DHT22;57543;45.442;9.212;2023-04-25T14:27:49;21.91;39.64
70170;DHT22;57543;45.442;9.212;2023-04-25T14:30:55;22.08;39.46
70170;DHT22;57543;45.442;9.212;2023-04-25T14:33:59;21.62;40.45
70170;DHT22;57543;45.442;9.212;2023-04-25T14:37:03;21.86;39.57
70170;DHT22;57543;45.442;9.212;2023-04-25T14:40:08;21.87;38.45
70170;DHT22;57543;45.442;9.212;2023-04-25T14:43:16;22.05;39.03
70170;DHT22;57543;45.442;9.212;2023-04-25T14:46:20;21.98;38.90
70170;DHT22;57543;45.442;9.212;2023-04-25T14:49:25;21.39;39.38
70170;DHT22;57543;45.442;9.212;2023-04-25T14:52:29;21.63;40.35
70170;DHT22;57543;45.442;9.212;2023-04-25T14:55:34;21.60;38.97
70170;DHT22;57543;45.442;9.212;2023-04-25T14:58:39;21.82;39.20
70170;DHT22;57543;45.442;9.212;2023-04-25T15:01:46;22.02;38.29
70170;DHT22;57543;45.442;9.212;2023-04-25T15:04:49;22.24;38.11
70170;DHT22;57543;45.442;9.212;2023-04-25T15:07:56;22.36;37.73
70170;DHT22;57543;45.442;9.212;2023-04-25T15:11:00;22.45;37.48
70170;DHT22;57543;45.442;9.212;2023-04-25T15:14:03;22.55;39.98
70170;DHT22;57543;45.442;9.212;2023-04-25T15:17:07;22.24;39.89
70170;DHT22;57543;45.442;9.212;2023-04-25T15:20:12;21.93;41.07
70170;DHT22;57543;45.442;9.212;2023-04-25T15:23:19;21.63;41.94
70170;DHT22;57543;45.442;9.212;2023-04-25T15:26:23;21.42;42.84
70170;DHT22;57543;45.442;9.212;2023-04-25T15:29:27;21.31;42.70
70170;DHT22;57543;45.442;9.212;2023-04-25T15:32:34;21.42;42.72
70170;DHT22;57543;45.442;9.212;2023-04-25T15:35:38;21.43;41.08
70170;DHT22;57543;45.442;9.212;2023-04-25T15:38:42;21.04;41.19
70170;DHT22;57543;45.442;9.212;2023-04-25T15:41:46;21.21;40.79
70170;DHT22;57543;45.442;9.212;2023-04-25T15:44:50;21.38;40.95
70170;DHT22;57543;45.442;9.212;2023-04-25T15:47:55;21.52;41.61
70170;DHT22;57543;45.442;9.212;2023-04-25T15:50:59;21.48;42.54
70170;DHT22;57543;45.442;9.212;2023-04-25T15:54:03;21.12;43.28
70170;DHT22;57543;45.442;9.212;2023-04-25T15:57:06;21.11;43.06
70170;DHT22;57543;45.442;9.212;2023-04-25T16:00:15;21.20;42.52
70170;DHT22;57543;45.442;9.212;2023-04-25T16:03:24;21.18;42.73
70170;DHT22;57543;45.442;9.212;2023-04-25T16:06:35;21.15;42.41
70170;DHT22;57543;45.442;9.212;2023-04-25T16:09:39;20.80;42.50
70170;DHT22;57543;45.442;9.212;2023-04-25T16:12:46;20.70;42.17
70170;DHT22;57543;45.442;9.212;2023-04-25T16:15:51;20.63;42.52
70170;DHT22;57543;45.442;9.212;2023-04-25T16:18:54;20.63;42.21
70170;DHT22;57543;45.442;9.212;2023-04-25T16:21:58;20.28;41.61
70170;DHT22;57543;45.442;9.212;2023-04-25T16:25:02;20.43;42.73
70170;DHT22;57543;45.442;9.212;2023-04-25T16:28:09;20.26;42.08
70170;DHT22;57543;45.442;9.212;2023-04-25T16:31:14;20.26;42.71
70170;DHT22;57543;45.442;9.212;2023-04-25T16:34:17;20.17;42.97
70170;DHT22;57543;45.442;9.212;2023-04-25T16:37:20;20.35;42.90
70170;DHT22;57543;45.442;9.212;2023-04-25T16:40:23;20.22;40.97
70170;DHT22;57543;45.442;9.212;2023-04-25T16:43:29;20.14;43.24
70170;DHT22;57543;45.442;9.212;2023-04-25T16:46:33;19.90;45.37
70170;DHT22;57543;45.442;9.212;2023-04-25T16:49:40;19.79;44.76
70170;DHT22;57543;45.442;9.212;2023-04-25T16:52:44;19.83;45.67
70170;DHT22;57543;45.442;9.212;2023-04-25T16:55:48;19.74;45.70
70170;DHT22;57543;45.442;9.212;2023-04-25T16:58:54;19.65;45.50
70170;DHT22;57543;45.442;9.212;2023-04-25T17:01:57;19.55;46.42
70170;DHT22;57543;45.442;9.212;2023-04-25T17:05:01;19.34;46.57
70170;DHT22;57543;45.442;9.212;2023-04-25T17:08:05;19.31;46.00
70170;DHT22;57543;45.442;9.212;2023-04-25T17:11:09;19.18;44.71
70170;DHT22;57543;45.442;9.212;2023-04-25T17:14:13;19.11;46.37
70170;DHT22;57543;45.442;9.212;2023-04-25T17:17:16;19.03;47.69
70170;DHT22;57543;45.442;9.212;2023-04-25T17:20:21;18.90;47.98
70170;DHT22;57543;45.442;9.212;2023-04-25T17:23:24;18.83;48.51
70170;DHT22;57543;45.442;9.212;2023-04-25T17:26:28;18.63;50.03
70170;DHT22;57543;45.442;9.212;2023-04-25T17:29:32;18.45;52.26
70170;DHT22;57543;45.442;9.212;2023-04-25T17:32:37;18.15;55.16
70170;DHT22;57543;45.442;9.212;2023-04-25T17:35:41;17.84;57.83
70170;DHT22;57543;45.442;9.212;2023-04-25T17:38:45;17.76;58.97
70170;DHT22;57543;45.442;9.212;2023-04-25T17:41:49;17.53;58.50
70170;DHT22;57543;45.442;9.212;2023-04-25T17:44:52;17.12;59.10
70170;DHT22;57543;45.442;9.212;2023-04-25T17:47:57;16.76;60.42
70170;DHT22;57543;45.442;9.212;2023-04-25T17:51:01;16.99;59.67
70170;DHT22;57543;45.442;9.212;2023-04-25T17:54:05;16.83;60.65
70170;DHT22;57543;45.442;9.212;2023-04-25T17:57:09;16.66;60.37
70170;DHT22;57543;45.442;9.212;2023-04-25T18:00:13;16.32;61.35
70170;DHT22;57543;45.442;9.212;2023-04-25T18:03:18;16.36;60.54
70170;DHT22;57543;45.442;9.212;2023-04-25T18:06:22;16.22;60.22
70170;DHT22;57543;45.442;9.212;2023-04-25T18:09:26;16.33;59.84
70170;DHT22;57543;45.442;9.212;2023-04-25T18:12:32;15.94;60.69
70170;DHT22;57543;45.442;9.212;2023-04-25T18:15:36;16.25;60.04
70170;DHT22;57543;45.442;9.212;2023-04-25T18:18:39;16.18;60.09
70170;DHT22;57543;45.442;9.212;2023-04-25T18:21:50;16.10;59.92
70170;DHT22;57543;45.442;9.212;2023-04-25T18:24:57;16.05;60.06
70170;DHT22;57543;45.442;9.212;2023-04-25T18:28:01;15.56;61.30
70170;DHT22;57543;45.442;9.212;2023-04-25T18:31:04;15.70;61.13
70170;DHT22;57543;45.442;9.212;2023-04-25T18:34:09;15.77;60.73
70170;DHT22;57543;45.442;9.212;2023-04-25T18:37:13;15.76;60.75
70170;DHT22;57543;45.442;9.212;2023-04-25T18:40:17;15.79;60.82
70170;DHT22;57543;45.442;9.212;2023-04-25T18:43:24;15.97;60.50
70170;DHT22;57543;45.442;9.212;2023-04-25T18:46:29;16.03;60.41
70170;DHT22;57543;45.442;9.212;2023-04-25T18:49:32;15.87;60.85
70170;DHT22;57543;45.442;9.212;2023-04-25T18:52:39;15.70;61.25
70170;DHT22;57543;45.442;9.212;2023-04-25T18:55:47;15.82;61.20
70170;DHT22;57543;45.442;9.212;2023-04-25T18:58:51;15.82;61.12
70170;DHT22;57543;45.442;9.212;2023-04-25T19:01:56;15.89;61.05
70170;DHT22;57543;45.442;9.212;2023-04-25T19:04:59;15.69;61.70
70170;DHT22;57543;45.442;9.212;2023-04-25T19:08:03;15.30;62.61
70170;DHT22;57543;45.442;9.212;2023-04-25T19:11:07;15.05;62.98
70170;DHT22;57543;45.442;9.212;2023-04-25T19:14:12;15.14;63.24
70170;DHT22;57543;45.442;9.212;2023-04-25T19:17:16;15.01;63.21
70170;DHT22;57543;45.442;9.212;2023-04-25T19:20:20;15.20;62.81
70170;DHT22;57543;45.442;9.212;2023-04-25T19:23:23;15.50;61.86
70170;DHT22;57543;45.442;9.212;2023-04-25T19:26:31;15.67;61.41
70170;DHT22;57543;45.442;9.212;2023-04-25T19:29:35;15.82;61.36
70170;DHT22;57543;45.442;9.212;2023-04-25T19:32:41;15.86;61.20
70170;DHT22;57543;45.442;9.212;2023-04-25T19:35:46;15.86;61.27
70170;DHT22;57543;45.442;9.212;2023-04-25T19:38:49;16.04;60.73
70170;DHT22;57543;45.442;9.212;2023-04-25T19:41:53;15.82;61.26
70170;DHT22;57543;45.442;9.212;2023-04-25T19:44:57;15.87;60.99